sensor_id;sensor_type;location;lat;lon;timestamp;P1;durP1;ratioP1;P2;durP2;ratioP2
68050;SDS011;54839;51.364;7.246;2023-04-24T00:00:08;3.30;;;0.60;;
68050;SDS011;54839;51.364;7.246;2023-04-24T00:02:34;1.93;;;0.87;;
68050;SDS011;54839;51.364;7.246;2023-04-24T00:05:03;1.53;;;0.80;;
68050;SDS011;54839;51.364;7.246;2023-04-24T00:07:32;1.57;;;1.47;;
68050;SDS011;54839;51.364;7.246;2023-04-24T00:09:57;1.40;;;1.20;;
68050;SDS011;54839;51.364;7.246;2023-04-24T00:12:23;1.90;;;1.23;;
68050;SDS011;54839;51.364;7.246;2023-04-24T00:14:49;0.93;;;0.83;;
68050;SDS011;54839;51.364;7.246;2023-04-24T00:17:15;1.27;;;0.87;;
68050;SDS011;54839;51.364;7.246;2023-04-24T00:19:40;1.30;;;0.97;;
68050;SDS011;54839;51.364;7.246;2023-04-24T00:22:06;1.73;;;1.07;;
68050;SDS011;54839;51.364;7.246;2023-04-24T00:24:32;1.20;;;1.00;;
68050;SDS011;54839;51.364;7.246;2023-04-24T00:26:57;0.93;;;0.83;;
68050;SDS011;54839;51.364;7.246;2023-04-24T00:29:23;1.20;;;0.97;;
68050;SDS011;54839;51.364;7.246;2023-04-24T00:31:49;1.00;;;0.80;;
68050;SDS011;54839;51.364;7.246;2023-04-24T00:34:14;1.83;;;1.03;;
68050;SDS011;54839;51.364;7.246;2023-04-24T00:36:40;1.37;;;1.27;;
68050;SDS011;54839;51.364;7.246;2023-04-24T00:39:05;1.87;;;1.27;;
68050;SDS011;54839;51.364;7.246;2023-04-24T00:41:33;1.30;;;1.07;;
68050;SDS011;54839;51.364;7.246;2023-04-24T00:43:59;1.40;;;1.30;;
68050;SDS011;54839;51.364;7.246;2023-04-24T00:46:25;1.50;;;1.20;;
68050;SDS011;54839;51.364;7.246;2023-04-24T00:48:50;1.40;;;0.77;;
68050;SDS011;54839;51.364;7.246;2023-04-24T00:51:16;2.13;;;1.63;;
68050;SDS011;54839;51.364;7.246;2023-04-24T00:53:42;0.83;;;0.83;;
68050;SDS011;54839;51.364;7.246;2023-04-24T00:56:07;3.47;;;1.10;;
68050;SDS011;54839;51.364;7.246;2023-04-24T00:58:33;3.47;;;1.73;;
68050;SDS011;54839;51.364;7.246;2023-04-24T01:00:58;1.23;;;1.17;;
68050;SDS011;54839;51.364;7.246;2023-04-24T01:03:26;1.30;;;1.20;;
68050;SDS011;54839;51.364;7.246;2023-04-24T01:05:55;3.63;;;1.40;;
68050;SDS011;54839;51.364;7.246;2023-04-24T01:08:21;2.63;;;1.37;;
68050;SDS011;54839;51.364;7.246;2023-04-24T01:10:50;1.53;;;1.20;;
68050;SDS011;54839;51.364;7.246;2023-04-24T01:13:17;5.23;;;2.30;;
68050;SDS011;54839;51.364;7.246;2023-04-24T01:15:44;3.00;;;1.30;;
68050;SDS011;54839;51.364;7.246;2023-04-24T01:18:10;1.73;;;1.43;;
68050;SDS011;54839;51.364;7.246;2023-04-24T01:20:35;2.50;;;1.07;;
68050;SDS011;54839;51.364;7.246;2023-04-24T01:23:04;1.43;;;1.33;;
68050;SDS011;54839;51.364;7.246;2023-04-24T01:25:31;2.50;;;1.60;;
68050;SDS011;54839;51.364;7.246;2023-04-24T01:27:56;1.63;;;1.30;;
68050;SDS011;54839;51.364;7.246;2023-04-24T01:30:22;2.03;;;1.83;;
68050;SDS011;54839;51.364;7.246;2023-04-24T01:32:48;2.60;;;1.73;;
68050;SDS011;54839;51.364;7.246;2023-04-24T01:35:14;2.70;;;2.00;;
68050;SDS011;54839;51.364;7.246;2023-04-24T01:37:40;1.90;;;1.50;;
68050;SDS011;54839;51.364;7.246;2023-04-24T01:40:06;6.90;;;2.07;;
68050;SDS011;54839;51.364;7.246;2023-04-24T01:42:32;2.40;;;1.37;;
68050;SDS011;54839;51.364;7.246;2023-04-24T01:44:59;1.63;;;1.40;;
68050;SDS011;54839;51.364;7.246;2023-04-24T01:47:25;2.13;;;1.97;;
68050;SDS011;54839;51.364;7.246;2023-04-24T01:49:51;2.87;;;2.13;;
68050;SDS011;54839;51.364;7.246;2023-04-24T01:52:17;2.63;;;1.70;;
68050;SDS011;54839;51.364;7.246;2023-04-24T01:54:43;2.30;;;2.03;;
68050;SDS011;54839;51.364;7.246;2023-04-24T01:57:09;1.60;;;1.50;;
68050;SDS011;54839;51.364;7.246;2023-04-24T01:59:35;2.50;;;2.00;;
68050;SDS011;54839;51.364;7.246;2023-04-24T02:02:01;2.33;;;1.80;;
68050;SDS011;54839;51.364;7.246;2023-04-24T02:04:27;4.33;;;1.80;;
68050;SDS011;54839;51.364;7.246;2023-04-24T02:06:53;2.43;;;2.20;;
68050;SDS011;54839;51.364;7.246;2023-04-24T02:09:18;3.00;;;2.43;;
68050;SDS011;54839;51.364;7.246;2023-04-24T02:11:44;4.83;;;2.90;;
68050;SDS011;54839;51.364;7.246;2023-04-24T02:14:10;4.10;;;3.70;;
68050;SDS011;54839;51.364;7.246;2023-04-24T02:16:35;4.73;;;3.73;;
68050;SDS011;54839;51.364;7.246;2023-04-24T02:19:01;5.50;;;4.07;;
68050;SDS011;54839;51.364;7.246;2023-04-24T02:21:27;4.40;;;3.73;;
68050;SDS011;54839;51.364;7.246;2023-04-24T02:23:53;4.00;;;3.60;;
68050;SDS011;54839;51.364;7.246;2023-04-24T02:26:19;3.83;;;3.40;;
68050;SDS011;54839;51.364;7.246;2023-04-24T02:28:46;4.23;;;3.83;;
68050;SDS011;54839;51.364;7.246;2023-04-24T02:31:11;5.67;;;4.80;;
68050;SDS011;54839;51.364;7.246;2023-04-24T02:33:37;7.07;;;4.40;;
68050;SDS011;54839;51.364;7.246;2023-04-24T02:36:02;6.63;;;4.37;;
68050;SDS011;54839;51.364;7.246;2023-04-24T02:38:28;7.23;;;4.37;;
68050;SDS011;54839;51.364;7.246;2023-04-24T02:40:54;5.60;;;3.70;;
68050;SDS011;54839;51.364;7.246;2023-04-24T02:43:20;5.50;;;4.90;;
68050;SDS011;54839;51.364;7.246;2023-04-24T02:45:45;5.07;;;4.57;;
68050;SDS011;54839;51.364;7.246;2023-04-24T02:48:11;5.40;;;4.23;;
68050;SDS011;54839;51.364;7.246;2023-04-24T02:50:37;7.47;;;5.50;;
68050;SDS011;54839;51.364;7.246;2023-04-24T02:53:02;9.40;;;6.40;;
68050;SDS011;54839;51.364;7.246;2023-04-24T02:55:28;7.87;;;5.93;;
68050;SDS011;54839;51.364;7.246;2023-04-24T02:57:54;11.03;;;7.80;;
68050;SDS011;54839;51.364;7.246;2023-04-24T03:00:19;12.93;;;8.07;;
68050;SDS011;54839;51.364;7.246;2023-04-24T03:02:45;8.30;;;7.50;;
68050;SDS011;54839;51.364;7.246;2023-04-24T03:05:10;9.20;;;7.40;;
68050;SDS011;54839;51.364;7.246;2023-04-24T03:07:37;7.77;;;6.70;;
68050;SDS011;54839;51.364;7.246;2023-04-24T03:10:03;12.40;;;5.97;;
68050;SDS011;54839;51.364;7.246;2023-04-24T03:12:30;13.80;;;9.00;;
68050;SDS011;54839;51.364;7.246;2023-04-24T03:14:56;11.80;;;9.17;;
68050;SDS011;54839;51.364;7.246;2023-04-24T03:17:21;11.00;;;8.43;;
68050;SDS011;54839;51.364;7.246;2023-04-24T03:19:47;12.83;;;7.70;;
68050;SDS011;54839;51.364;7.246;2023-04-24T03:22:12;11.93;;;6.77;;
68050;SDS011;54839;51.364;7.246;2023-04-24T03:24:38;9.13;;;8.10;;
68050;SDS011;54839;51.364;7.246;2023-04-24T03:27:04;9.87;;;7.90;;
68050;SDS011;54839;51.364;7.246;2023-04-24T03:29:29;14.00;;;10.70;;
68050;SDS011;54839;51.364;7.246;2023-04-24T03:31:55;9.80;;;7.93;;
68050;SDS011;54839;51.364;7.246;2023-04-24T03:34:20;13.80;;;9.73;;
68050;SDS011;54839;51.364;7.246;2023-04-24T03:36:46;12.00;;;9.47;;
68050;SDS011;54839;51.364;7.246;2023-04-24T03:39:14;9.87;;;7.80;;
68050;SDS011;54839;51.364;7.246;2023-04-24T03:41:40;11.20;;;8.73;;
68050;SDS011;54839;51.364;7.246;2023-04-24T03:44:05;13.10;;;9.17;;
68050;SDS011;54839;51.364;7.246;2023-04-24T03:46:31;15.30;;;10.70;;
68050;SDS011;54839;51.364;7.246;2023-04-24T03:48:56;11.30;;;8.70;;
68050;SDS011;54839;51.364;7.246;2023-04-24T03:51:22;6.50;;;5.90;;
68050;SDS011;54839;51.364;7.246;2023-04-24T03:53:48;13.37;;;9.97;;
68050;SDS011;54839;51.364;7.246;2023-04-24T03:56:14;11.20;;;9.50;;
68050;SDS011;54839;51.364;7.246;2023-04-24T03:58:39;12.90;;;11.60;;
68050;SDS011;54839;51.364;7.246;2023-04-24T04:01:05;11.03;;;9.80;;
68050;SDS011;54839;51.364;7.246;2023-04-24T04:03:31;13.93;;;11.80;;
68050;SDS011;54839;51.364;7.246;2023-04-24T04:05:56;15.13;;;11.70;;
68050;SDS011;54839;51.364;7.246;2023-04-24T04:08:22;12.43;;;9.80;;
68050;SDS011;54839;51.364;7.246;2023-04-24T04:10:48;11.80;;;10.43;;
68050;SDS011;54839;51.364;7.246;2023-04-24T04:13:13;15.07;;;10.03;;
68050;SDS011;54839;51.364;7.246;2023-04-24T04:15:39;25.10;;;9.97;;
68050;SDS011;54839;51.364;7.246;2023-04-24T04:18:05;12.23;;;9.70;;
68050;SDS011;54839;51.364;7.246;2023-04-24T04:20:30;10.77;;;9.20;;
68050;SDS011;54839;51.364;7.246;2023-04-24T04:22:56;11.33;;;9.20;;
68050;SDS011;54839;51.364;7.246;2023-04-24T04:25:21;15.70;;;10.07;;
68050;SDS011;54839;51.364;7.246;2023-04-24T04:27:47;19.23;;;10.77;;
68050;SDS011;54839;51.364;7.246;2023-04-24T04:30:13;8.47;;;7.27;;
68050;SDS011;54839;51.364;7.246;2023-04-24T04:32:39;9.90;;;7.87;;
68050;SDS011;54839;51.364;7.246;2023-04-24T04:35:05;14.57;;;8.97;;
68050;SDS011;54839;51.364;7.246;2023-04-24T04:37:31;17.23;;;9.40;;
68050;SDS011;54839;51.364;7.246;2023-04-24T04:39:58;12.37;;;10.07;;
68050;SDS011;54839;51.364;7.246;2023-04-24T04:42:24;11.27;;;9.83;;
68050;SDS011;54839;51.364;7.246;2023-04-24T04:44:51;12.70;;;9.20;;
68050;SDS011;54839;51.364;7.246;2023-04-24T04:47:17;11.93;;;8.87;;
68050;SDS011;54839;51.364;7.246;2023-04-24T04:49:43;14.90;;;12.60;;
68050;SDS011;54839;51.364;7.246;2023-04-24T04:52:09;18.17;;;10.10;;
68050;SDS011;54839;51.364;7.246;2023-04-24T04:54:34;21.83;;;10.07;;
68050;SDS011;54839;51.364;7.246;2023-04-24T04:57:00;14.67;;;11.47;;
68050;SDS011;54839;51.364;7.246;2023-04-24T04:59:26;17.00;;;14.00;;
68050;SDS011;54839;51.364;7.246;2023-04-24T05:01:52;15.40;;;10.23;;
68050;SDS011;54839;51.364;7.246;2023-04-24T05:04:17;16.10;;;11.27;;
68050;SDS011;54839;51.364;7.246;2023-04-24T05:06:43;12.43;;;8.60;;
68050;SDS011;54839;51.364;7.246;2023-04-24T05:09:08;11.03;;;9.90;;
68050;SDS011;54839;51.364;7.246;2023-04-24T05:11:34;9.60;;;8.00;;
68050;SDS011;54839;51.364;7.246;2023-04-24T05:14:00;13.40;;;10.10;;
68050;SDS011;54839;51.364;7.246;2023-04-24T05:16:26;13.10;;;9.70;;
68050;SDS011;54839;51.364;7.246;2023-04-24T05:18:51;17.83;;;8.60;;
68050;SDS011;54839;51.364;7.246;2023-04-24T05:21:17;10.40;;;9.30;;
68050;SDS011;54839;51.364;7.246;2023-04-24T05:23:42;12.53;;;9.43;;
68050;SDS011;54839;51.364;7.246;2023-04-24T05:26:08;13.10;;;10.20;;
68050;SDS011;54839;51.364;7.246;2023-04-24T05:28:33;13.80;;;9.80;;
68050;SDS011;54839;51.364;7.246;2023-04-24T05:31:01;9.43;;;8.43;;
68050;SDS011;54839;51.364;7.246;2023-04-24T05:33:27;10.50;;;9.20;;
68050;SDS011;54839;51.364;7.246;2023-04-24T05:35:53;10.27;;;7.50;;
68050;SDS011;54839;51.364;7.246;2023-04-24T05:38:18;11.83;;;9.80;;
68050;SDS011;54839;51.364;7.246;2023-04-24T05:40:45;12.50;;;9.60;;
68050;SDS011;54839;51.364;7.246;2023-04-24T05:43:11;12.47;;;9.30;;
68050;SDS011;54839;51.364;7.246;2023-04-24T05:45:37;9.93;;;8.93;;
68050;SDS011;54839;51.364;7.246;2023-04-24T05:48:03;11.33;;;10.20;;
68050;SDS011;54839;51.364;7.246;2023-04-24T05:50:28;16.07;;;8.70;;
68050;SDS011;54839;51.364;7.246;2023-04-24T05:52:54;11.97;;;9.20;;
68050;SDS011;54839;51.364;7.246;2023-04-24T05:55:20;10.03;;;7.97;;
68050;SDS011;54839;51.364;7.246;2023-04-24T05:57:45;10.80;;;9.47;;
68050;SDS011;54839;51.364;7.246;2023-04-24T06:00:11;7.60;;;6.90;;
68050;SDS011;54839;51.364;7.246;2023-04-24T06:02:37;9.20;;;6.43;;
68050;SDS011;54839;51.364;7.246;2023-04-24T06:05:03;10.43;;;7.87;;
68050;SDS011;54839;51.364;7.246;2023-04-24T06:07:30;10.80;;;9.17;;
68050;SDS011;54839;51.364;7.246;2023-04-24T06:09:56;8.70;;;7.87;;
68050;SDS011;54839;51.364;7.246;2023-04-24T06:12:21;10.20;;;6.77;;
68050;SDS011;54839;51.364;7.246;2023-04-24T06:14:47;7.20;;;6.40;;
68050;SDS011;54839;51.364;7.246;2023-04-24T06:17:13;7.37;;;5.97;;
68050;SDS011;54839;51.364;7.246;2023-04-24T06:19:39;6.73;;;5.40;;
68050;SDS011;54839;51.364;7.246;2023-04-24T06:22:05;10.00;;;6.90;;
68050;SDS011;54839;51.364;7.246;2023-04-24T06:24:30;7.93;;;7.13;;
68050;SDS011;54839;51.364;7.246;2023-04-24T06:26:56;5.90;;;5.30;;
68050;SDS011;54839;51.364;7.246;2023-04-24T06:29:23;9.90;;;7.73;;
68050;SDS011;54839;51.364;7.246;2023-04-24T06:31:49;10.00;;;9.00;;
68050;SDS011;54839;51.364;7.246;2023-04-24T06:34:15;8.50;;;7.63;;
68050;SDS011;54839;51.364;7.246;2023-04-24T06:36:40;10.73;;;9.17;;
68050;SDS011;54839;51.364;7.246;2023-04-24T06:39:06;10.07;;;7.80;;
68050;SDS011;54839;51.364;7.246;2023-04-24T06:41:31;11.50;;;9.87;;
68050;SDS011;54839;51.364;7.246;2023-04-24T06:43:57;9.23;;;6.00;;
68050;SDS011;54839;51.364;7.246;2023-04-24T06:46:23;9.03;;;8.13;;
68050;SDS011;54839;51.364;7.246;2023-04-24T06:48:51;8.80;;;7.73;;
68050;SDS011;54839;51.364;7.246;2023-04-24T06:51:17;8.00;;;7.20;;
68050;SDS011;54839;51.364;7.246;2023-04-24T06:53:43;7.90;;;7.10;;
68050;SDS011;54839;51.364;7.246;2023-04-24T06:56:08;11.50;;;10.23;;
68050;SDS011;54839;51.364;7.246;2023-04-24T06:58:34;8.20;;;6.97;;
68050;SDS011;54839;51.364;7.246;2023-04-24T07:01:00;9.20;;;7.17;;
68050;SDS011;54839;51.364;7.246;2023-04-24T07:03:25;8.70;;;7.40;;
68050;SDS011;54839;51.364;7.246;2023-04-24T07:05:51;8.90;;;6.00;;
68050;SDS011;54839;51.364;7.246;2023-04-24T07:08:18;10.93;;;9.70;;
68050;SDS011;54839;51.364;7.246;2023-04-24T07:10:45;12.07;;;5.90;;
68050;SDS011;54839;51.364;7.246;2023-04-24T07:13:11;5.00;;;4.50;;
68050;SDS011;54839;51.364;7.246;2023-04-24T07:15:36;6.20;;;4.70;;
68050;SDS011;54839;51.364;7.246;2023-04-24T07:18:02;5.30;;;3.97;;
68050;SDS011;54839;51.364;7.246;2023-04-24T07:20:27;4.47;;;3.57;;
68050;SDS011;54839;51.364;7.246;2023-04-24T07:22:53;2.70;;;2.50;;
68050;SDS011;54839;51.364;7.246;2023-04-24T07:25:19;5.47;;;4.03;;
68050;SDS011;54839;51.364;7.246;2023-04-24T07:27:44;4.80;;;3.40;;
68050;SDS011;54839;51.364;7.246;2023-04-24T07:30:10;2.93;;;2.60;;
68050;SDS011;54839;51.364;7.246;2023-04-24T07:32:36;5.93;;;4.30;;
68050;SDS011;54839;51.364;7.246;2023-04-24T07:35:02;3.50;;;3.20;;
68050;SDS011;54839;51.364;7.246;2023-04-24T07:37:28;5.20;;;3.93;;
68050;SDS011;54839;51.364;7.246;2023-04-24T07:39:54;3.50;;;3.20;;
68050;SDS011;54839;51.364;7.246;2023-04-24T07:42:20;4.20;;;3.70;;
68050;SDS011;54839;51.364;7.246;2023-04-24T07:44:45;4.63;;;3.70;;
68050;SDS011;54839;51.364;7.246;2023-04-24T07:47:12;3.20;;;2.90;;
68050;SDS011;54839;51.364;7.246;2023-04-24T07:49:40;5.10;;;2.80;;
68050;SDS011;54839;51.364;7.246;2023-04-24T07:52:06;3.10;;;2.80;;
68050;SDS011;54839;51.364;7.246;2023-04-24T07:54:32;3.27;;;2.97;;
68050;SDS011;54839;51.364;7.246;2023-04-24T07:56:57;3.13;;;2.80;;
68050;SDS011;54839;51.364;7.246;2023-04-24T07:59:23;1.50;;;1.40;;
68050;SDS011;54839;51.364;7.246;2023-04-24T08:01:49;3.30;;;2.10;;
68050;SDS011;54839;51.364;7.246;2023-04-24T08:04:14;3.80;;;1.70;;
68050;SDS011;54839;51.364;7.246;2023-04-24T08:06:40;3.80;;;2.13;;
68050;SDS011;54839;51.364;7.246;2023-04-24T08:09:05;2.90;;;1.80;;
68050;SDS011;54839;51.364;7.246;2023-04-24T08:11:31;3.10;;;2.40;;
68050;SDS011;54839;51.364;7.246;2023-04-24T08:13:57;5.90;;;1.70;;
68050;SDS011;54839;51.364;7.246;2023-04-24T08:16:23;2.93;;;1.67;;
68050;SDS011;54839;51.364;7.246;2023-04-24T08:18:49;1.27;;;1.17;;
68050;SDS011;54839;51.364;7.246;2023-04-24T08:21:15;1.90;;;1.30;;
68050;SDS011;54839;51.364;7.246;2023-04-24T08:23:42;1.43;;;1.30;;
68050;SDS011;54839;51.364;7.246;2023-04-24T08:26:08;1.70;;;0.80;;
68050;SDS011;54839;51.364;7.246;2023-04-24T08:28:34;1.57;;;0.93;;
68050;SDS011;54839;51.364;7.246;2023-04-24T08:30:59;1.40;;;0.93;;
68050;SDS011;54839;51.364;7.246;2023-04-24T08:33:26;1.23;;;1.00;;
68050;SDS011;54839;51.364;7.246;2023-04-24T08:35:52;1.27;;;0.77;;
68050;SDS011;54839;51.364;7.246;2023-04-24T08:38:17;1.60;;;0.67;;
68050;SDS011;54839;51.364;7.246;2023-04-24T08:40:43;0.70;;;0.40;;
68050;SDS011;54839;51.364;7.246;2023-04-24T08:43:11;2.80;;;1.00;;
68050;SDS011;54839;51.364;7.246;2023-04-24T08:45:37;0.90;;;0.57;;
68050;SDS011;54839;51.364;7.246;2023-04-24T08:48:03;1.00;;;0.67;;
68050;SDS011;54839;51.364;7.246;2023-04-24T08:50:30;1.13;;;1.00;;
68050;SDS011;54839;51.364;7.246;2023-04-24T08:52:56;2.97;;;0.93;;
68050;SDS011;54839;51.364;7.246;2023-04-24T08:55:22;1.57;;;0.90;;
68050;SDS011;54839;51.364;7.246;2023-04-24T08:57:50;1.10;;;0.80;;
68050;SDS011;54839;51.364;7.246;2023-04-24T09:00:18;1.03;;;0.80;;
68050;SDS011;54839;51.364;7.246;2023-04-24T09:02:45;0.80;;;0.50;;
68050;SDS011;54839;51.364;7.246;2023-04-24T09:05:13;2.80;;;1.53;;
68050;SDS011;54839;51.364;7.246;2023-04-24T09:07:41;1.20;;;0.80;;
68050;SDS011;54839;51.364;7.246;2023-04-24T09:10:10;1.43;;;0.60;;
68050;SDS011;54839;51.364;7.246;2023-04-24T09:12:36;1.43;;;0.80;;
68050;SDS011;54839;51.364;7.246;2023-04-24T09:15:02;1.13;;;0.93;;
68050;SDS011;54839;51.364;7.246;2023-04-24T09:17:29;1.37;;;0.60;;
68050;SDS011;54839;51.364;7.246;2023-04-24T09:19:55;1.13;;;0.67;;
68050;SDS011;54839;51.364;7.246;2023-04-24T09:22:21;1.40;;;0.53;;
68050;SDS011;54839;51.364;7.246;2023-04-24T09:24:46;1.07;;;0.93;;
68050;SDS011;54839;51.364;7.246;2023-04-24T09:27:13;1.90;;;1.00;;
68050;SDS011;54839;51.364;7.246;2023-04-24T09:29:41;1.03;;;0.90;;
68050;SDS011;54839;51.364;7.246;2023-04-24T09:32:19;1.00;;;0.70;;
68050;SDS011;54839;51.364;7.246;2023-04-24T09:34:47;1.10;;;0.93;;
68050;SDS011;54839;51.364;7.246;2023-04-24T09:37:29;0.80;;;0.80;;
68050;SDS011;54839;51.364;7.246;2023-04-24T09:40:07;1.67;;;0.90;;
68050;SDS011;54839;51.364;7.246;2023-04-24T09:42:44;1.00;;;0.90;;
68050;SDS011;54839;51.364;7.246;2023-04-24T09:45:20;3.13;;;1.40;;
68050;SDS011;54839;51.364;7.246;2023-04-24T09:47:46;2.60;;;2.40;;
68050;SDS011;54839;51.364;7.246;2023-04-24T09:50:18;3.20;;;2.90;;
68050;SDS011;54839;51.364;7.246;2023-04-24T09:52:44;10.70;;;4.30;;
68050;SDS011;54839;51.364;7.246;2023-04-24T09:55:21;3.70;;;3.37;;
68050;SDS011;54839;51.364;7.246;2023-04-24T09:57:47;2.87;;;2.67;;
68050;SDS011;54839;51.364;7.246;2023-04-24T10:00:17;6.00;;;3.40;;
68050;SDS011;54839;51.364;7.246;2023-04-24T10:03:01;3.40;;;2.53;;
68050;SDS011;54839;51.364;7.246;2023-04-24T10:05:34;4.10;;;2.70;;
68050;SDS011;54839;51.364;7.246;2023-04-24T10:10:28;6.03;;;3.27;;
68050;SDS011;54839;51.364;7.246;2023-04-24T10:12:54;4.77;;;3.30;;
68050;SDS011;54839;51.364;7.246;2023-04-24T10:15:20;3.27;;;2.80;;
68050;SDS011;54839;51.364;7.246;2023-04-24T10:17:47;4.60;;;3.20;;
68050;SDS011;54839;51.364;7.246;2023-04-24T10:20:17;4.00;;;3.60;;
68050;SDS011;54839;51.364;7.246;2023-04-24T10:22:45;5.00;;;4.20;;
68050;SDS011;54839;51.364;7.246;2023-04-24T10:25:15;5.07;;;2.90;;
68050;SDS011;54839;51.364;7.246;2023-04-24T10:27:42;3.33;;;2.87;;
68050;SDS011;54839;51.364;7.246;2023-04-24T10:30:08;5.30;;;4.47;;
68050;SDS011;54839;51.364;7.246;2023-04-24T10:32:36;4.77;;;4.03;;
68050;SDS011;54839;51.364;7.246;2023-04-24T10:35:01;5.27;;;4.67;;
68050;SDS011;54839;51.364;7.246;2023-04-24T10:37:27;4.90;;;4.30;;
68050;SDS011;54839;51.364;7.246;2023-04-24T10:39:53;6.90;;;5.10;;
68050;SDS011;54839;51.364;7.246;2023-04-24T10:42:21;5.03;;;4.37;;
68050;SDS011;54839;51.364;7.246;2023-04-24T10:44:47;5.23;;;4.70;;
68050;SDS011;54839;51.364;7.246;2023-04-24T10:47:14;6.43;;;2.90;;
68050;SDS011;54839;51.364;7.246;2023-04-24T10:49:40;4.53;;;3.50;;
68050;SDS011;54839;51.364;7.246;2023-04-24T10:52:05;6.30;;;4.80;;
68050;SDS011;54839;51.364;7.246;2023-04-24T10:54:34;5.40;;;4.90;;
68050;SDS011;54839;51.364;7.246;2023-04-24T10:59:48;9.33;;;5.80;;
68050;SDS011;54839;51.364;7.246;2023-04-24T11:02:16;6.67;;;4.03;;
68050;SDS011;54839;51.364;7.246;2023-04-24T11:04:42;10.30;;;5.67;;
68050;SDS011;54839;51.364;7.246;2023-04-24T11:07:08;6.80;;;5.37;;
68050;SDS011;54839;51.364;7.246;2023-04-24T11:09:35;11.10;;;6.03;;
68050;SDS011;54839;51.364;7.246;2023-04-24T11:12:08;9.73;;;6.53;;
68050;SDS011;54839;51.364;7.246;2023-04-24T11:17:35;6.70;;;5.00;;
68050;SDS011;54839;51.364;7.246;2023-04-24T11:20:07;4.13;;;3.50;;
68050;SDS011;54839;51.364;7.246;2023-04-24T11:22:37;9.83;;;6.27;;
68050;SDS011;54839;51.364;7.246;2023-04-24T11:25:07;9.20;;;5.23;;
68050;SDS011;54839;51.364;7.246;2023-04-24T11:27:40;12.37;;;6.40;;
68050;SDS011;54839;51.364;7.246;2023-04-24T11:30:08;13.00;;;6.80;;
68050;SDS011;54839;51.364;7.246;2023-04-24T11:32:36;8.37;;;4.30;;
68050;SDS011;54839;51.364;7.246;2023-04-24T11:37:38;11.80;;;7.50;;
68050;SDS011;54839;51.364;7.246;2023-04-24T11:40:06;13.80;;;7.77;;
68050;SDS011;54839;51.364;7.246;2023-04-24T11:42:35;14.17;;;7.80;;
68050;SDS011;54839;51.364;7.246;2023-04-24T11:45:09;20.17;;;8.77;;
68050;SDS011;54839;51.364;7.246;2023-04-24T11:47:36;10.37;;;6.07;;
68050;SDS011;54839;51.364;7.246;2023-04-24T11:50:02;14.10;;;8.60;;
68050;SDS011;54839;51.364;7.246;2023-04-24T11:52:30;12.50;;;6.80;;
68050;SDS011;54839;51.364;7.246;2023-04-24T11:54:56;9.17;;;6.17;;
68050;SDS011;54839;51.364;7.246;2023-04-24T11:57:23;9.33;;;6.27;;
68050;SDS011;54839;51.364;7.246;2023-04-24T11:59:52;7.30;;;5.60;;
68050;SDS011;54839;51.364;7.246;2023-04-24T12:02:25;9.93;;;5.90;;
68050;SDS011;54839;51.364;7.246;2023-04-24T12:04:52;8.80;;;5.30;;
68050;SDS011;54839;51.364;7.246;2023-04-24T12:07:19;6.70;;;4.93;;
68050;SDS011;54839;51.364;7.246;2023-04-24T12:09:45;16.87;;;5.77;;
68050;SDS011;54839;51.364;7.246;2023-04-24T12:12:13;8.40;;;4.90;;
68050;SDS011;54839;51.364;7.246;2023-04-24T12:14:49;6.10;;;4.10;;
68050;SDS011;54839;51.364;7.246;2023-04-24T12:17:17;8.37;;;4.40;;
68050;SDS011;54839;51.364;7.246;2023-04-24T12:19:46;4.60;;;3.63;;
68050;SDS011;54839;51.364;7.246;2023-04-24T12:22:12;16.73;;;5.90;;
68050;SDS011;54839;51.364;7.246;2023-04-24T12:24:57;8.23;;;3.60;;
68050;SDS011;54839;51.364;7.246;2023-04-24T12:27:31;7.50;;;4.53;;
68050;SDS011;54839;51.364;7.246;2023-04-24T12:30:01;6.33;;;3.50;;
68050;SDS011;54839;51.364;7.246;2023-04-24T12:32:28;6.10;;;4.20;;
68050;SDS011;54839;51.364;7.246;2023-04-24T12:34:55;11.40;;;4.87;;
68050;SDS011;54839;51.364;7.246;2023-04-24T12:37:22;6.40;;;4.27;;
68050;SDS011;54839;51.364;7.246;2023-04-24T12:39:58;8.07;;;4.97;;
68050;SDS011;54839;51.364;7.246;2023-04-24T12:42:29;12.23;;;4.90;;
68050;SDS011;54839;51.364;7.246;2023-04-24T12:44:56;9.10;;;4.33;;
68050;SDS011;54839;51.364;7.246;2023-04-24T12:47:32;6.53;;;5.07;;
68050;SDS011;54839;51.364;7.246;2023-04-24T12:49:59;8.93;;;5.60;;
68050;SDS011;54839;51.364;7.246;2023-04-24T12:52:25;7.50;;;3.87;;
68050;SDS011;54839;51.364;7.246;2023-04-24T12:54:52;9.27;;;4.77;;
68050;SDS011;54839;51.364;7.246;2023-04-24T12:57:19;6.37;;;2.10;;
68050;SDS011;54839;51.364;7.246;2023-04-24T12:59:45;6.40;;;3.43;;
68050;SDS011;54839;51.364;7.246;2023-04-24T13:02:11;6.90;;;3.63;;
68050;SDS011;54839;51.364;7.246;2023-04-24T13:04:36;5.83;;;3.40;;
68050;SDS011;54839;51.364;7.246;2023-04-24T13:07:02;6.10;;;3.70;;
68050;SDS011;54839;51.364;7.246;2023-04-24T13:09:28;6.50;;;3.63;;
68050;SDS011;54839;51.364;7.246;2023-04-24T13:11:54;4.93;;;4.00;;
68050;SDS011;54839;51.364;7.246;2023-04-24T13:14:21;5.43;;;3.00;;
68050;SDS011;54839;51.364;7.246;2023-04-24T13:16:47;6.83;;;3.30;;
68050;SDS011;54839;51.364;7.246;2023-04-24T13:19:12;4.97;;;3.60;;
68050;SDS011;54839;51.364;7.246;2023-04-24T13:21:38;8.40;;;4.30;;
68050;SDS011;54839;51.364;7.246;2023-04-24T13:24:03;6.20;;;3.33;;
68050;SDS011;54839;51.364;7.246;2023-04-24T13:26:29;4.77;;;2.53;;
68050;SDS011;54839;51.364;7.246;2023-04-24T13:28:55;6.93;;;2.87;;
68050;SDS011;54839;51.364;7.246;2023-04-24T13:31:21;6.77;;;2.70;;
68050;SDS011;54839;51.364;7.246;2023-04-24T13:33:46;7.30;;;2.30;;
68050;SDS011;54839;51.364;7.246;2023-04-24T13:36:12;5.93;;;2.30;;
68050;SDS011;54839;51.364;7.246;2023-04-24T13:38:38;1.47;;;1.17;;
68050;SDS011;54839;51.364;7.246;2023-04-24T13:41:03;7.83;;;3.30;;
68050;SDS011;54839;51.364;7.246;2023-04-24T13:43:29;6.73;;;3.10;;
68050;SDS011;54839;51.364;7.246;2023-04-24T13:45:54;3.93;;;2.27;;
68050;SDS011;54839;51.364;7.246;2023-04-24T13:48:20;3.30;;;2.10;;
68050;SDS011;54839;51.364;7.246;2023-04-24T13:50:46;6.27;;;1.90;;
68050;SDS011;54839;51.364;7.246;2023-04-24T13:53:13;3.57;;;2.20;;
68050;SDS011;54839;51.364;7.246;2023-04-24T13:55:39;4.83;;;1.40;;
68050;SDS011;54839;51.364;7.246;2023-04-24T13:58:05;8.43;;;2.27;;
68050;SDS011;54839;51.364;7.246;2023-04-24T14:00:31;3.60;;;2.10;;
68050;SDS011;54839;51.364;7.246;2023-04-24T14:02:57;5.00;;;2.80;;
68050;SDS011;54839;51.364;7.246;2023-04-24T14:05:22;5.77;;;2.13;;
68050;SDS011;54839;51.364;7.246;2023-04-24T14:07:48;3.60;;;1.97;;
68050;SDS011;54839;51.364;7.246;2023-04-24T14:10:13;5.67;;;2.30;;
68050;SDS011;54839;51.364;7.246;2023-04-24T14:12:39;5.17;;;3.40;;
68050;SDS011;54839;51.364;7.246;2023-04-24T14:15:05;4.17;;;2.63;;
68050;SDS011;54839;51.364;7.246;2023-04-24T14:17:31;4.73;;;1.90;;
68050;SDS011;54839;51.364;7.246;2023-04-24T14:19:56;2.60;;;1.40;;
68050;SDS011;54839;51.364;7.246;2023-04-24T14:22:24;2.63;;;1.30;;
68050;SDS011;54839;51.364;7.246;2023-04-24T14:24:50;2.77;;;1.70;;
68050;SDS011;54839;51.364;7.246;2023-04-24T14:27:15;3.27;;;1.10;;
68050;SDS011;54839;51.364;7.246;2023-04-24T14:29:41;3.30;;;1.50;;
68050;SDS011;54839;51.364;7.246;2023-04-24T14:32:07;1.70;;;1.47;;
68050;SDS011;54839;51.364;7.246;2023-04-24T14:34:33;3.10;;;1.27;;
68050;SDS011;54839;51.364;7.246;2023-04-24T14:36:59;3.37;;;1.53;;
68050;SDS011;54839;51.364;7.246;2023-04-24T14:39:25;10.53;;;2.13;;
68050;SDS011;54839;51.364;7.246;2023-04-24T14:41:50;10.43;;;8.83;;
68050;SDS011;54839;51.364;7.246;2023-04-24T14:44:16;6.17;;;1.20;;
68050;SDS011;54839;51.364;7.246;2023-04-24T14:46:42;2.57;;;1.33;;
68050;SDS011;54839;51.364;7.246;2023-04-24T14:49:08;3.63;;;1.30;;